createdAt,value
2019-04-25T00:05:21.118Z,14.62
2019-04-25T00:08:08.121Z,14.63
2019-04-25T00:10:47.714Z,14.54
2019-04-25T00:13:35.465Z,14.48
2019-04-25T00:16:01.853Z,14.54
2019-04-25T00:22:02.729Z,14.47
2019-04-25T00:27:36.003Z,14.36
2019-04-25T00:30:27.509Z,14.34
2019-04-25T00:33:06.655Z,14.33
2019-04-25T00:39:11.906Z,14.25
2019-04-25T00:45:16.581Z,14.21
2019-04-25T00:47:55.706Z,14.12
2019-04-25T00:50:35.549Z,14.11
2019-04-25T00:53:01.596Z,14.00
2019-04-25T00:55:47.452Z,13.90
2019-04-25T01:04:53.251Z,13.84
2019-04-25T01:13:33.178Z,14.00
2019-04-25T01:16:19.180Z,13.93
2019-04-25T01:21:34.014Z,13.90
2019-04-25T01:24:11.132Z,13.83
2019-04-25T01:27:10.500Z,13.82
2019-04-25T01:39:25.737Z,13.76
2019-04-25T01:42:06.758Z,13.88
2019-04-25T01:45:05.980Z,13.82
2019-04-25T01:47:45.573Z,13.77
2019-04-25T01:50:25.330Z,13.67
2019-04-25T01:52:51.336Z,13.60
2019-04-25T01:55:17.332Z,13.47
2019-04-25T02:01:38.784Z,13.50
2019-04-25T02:07:18.401Z,13.38
2019-04-25T02:10:06.160Z,13.45
2019-04-25T02:12:47.785Z,13.41
2019-04-25T02:15:28.800Z,13.29
2019-04-25T02:18:07.977Z,13.22
2019-04-25T02:20:34.176Z,13.14
2019-04-25T02:23:00.484Z,13.16
2019-04-25T02:28:33.955Z,13.29
2019-04-25T02:34:03.449Z,13.49
2019-04-25T02:36:49.330Z,13.52
2019-04-25T02:39:57.949Z,13.64
2019-04-25T02:42:44.247Z,13.56
2019-04-25T02:45:36.225Z,13.66
2019-04-25T02:51:15.905Z,13.74
2019-04-25T02:53:57.778Z,13.85
2019-04-25T02:56:33.284Z,13.74
2019-04-25T02:59:21.565Z,13.63
2019-04-25T03:02:03.091Z,13.52
2019-04-25T03:04:44.510Z,13.52
2019-04-25T03:07:24.870Z,13.46
2019-04-25T03:10:06.815Z,13.34
2019-04-25T03:12:49.482Z,13.26
2019-04-25T03:15:28.691Z,13.07
2019-04-25T03:18:10.831Z,12.99
2019-04-25T03:21:13.440Z,12.96
2019-04-25T03:23:50.323Z,13.04
2019-04-25T03:26:39.881Z,13.16
2019-04-25T03:32:19.784Z,13.07
2019-04-25T03:34:57.357Z,13.09
2019-04-25T03:40:43.870Z,13.09
2019-04-25T03:43:29.931Z,13.10
2019-04-25T03:46:10.333Z,13.14
2019-04-25T03:48:49.806Z,13.14
2019-04-25T03:51:15.864Z,13.25
2019-04-25T03:53:43.480Z,13.39
2019-04-25T03:56:16.221Z,13.44
2019-04-25T03:59:25.885Z,13.62
2019-04-25T04:02:11.740Z,13.66
2019-04-25T04:04:37.751Z,13.61
2019-04-25T04:07:23.903Z,13.85
2019-04-25T04:10:04.571Z,13.81
2019-04-25T04:15:56.950Z,13.75
2019-04-25T04:18:40.741Z,13.77
2019-04-25T04:24:26.175Z,13.67
2019-04-25T04:27:12.156Z,13.74
2019-04-25T04:29:58.164Z,13.85
2019-04-25T04:32:37.336Z,13.83
2019-04-25T04:35:18.433Z,13.93
2019-04-25T04:37:57.895Z,14.12
2019-04-25T04:40:36.822Z,14.07
2019-04-25T04:43:16.573Z,14.13
2019-04-25T04:45:55.965Z,14.22
2019-04-25T04:48:34.998Z,14.30
2019-04-25T04:51:01.039Z,14.22
2019-04-25T04:53:46.920Z,14.41
2019-04-25T04:56:25.992Z,14.37
2019-04-25T04:58:53.802Z,14.30
2019-04-25T05:02:05.911Z,14.38
2019-04-25T05:04:50.376Z,14.44
2019-04-25T05:07:49.689Z,14.35
2019-04-25T05:10:29.093Z,14.51
2019-04-25T05:16:23.815Z,14.51
2019-04-25T05:21:53.605Z,14.43
2019-04-25T05:24:26.438Z,14.52
2019-04-25T05:27:32.343Z,14.49
2019-04-25T05:29:54.414Z,14.42
2019-04-25T05:32:40.423Z,14.32
2019-04-25T05:44:27.140Z,14.81
2019-04-25T05:47:21.134Z,14.65
2019-04-25T05:50:07.093Z,14.54
2019-04-25T05:52:46.070Z,14.71
2019-04-25T05:58:29.364Z,14.81
2019-04-25T06:01:08.633Z,14.73
2019-04-25T06:06:44.624Z,14.72
2019-04-25T06:13:40.740Z,14.54
2019-04-25T06:16:48.523Z,14.62
2019-04-25T06:19:36.289Z,14.56
2019-04-25T06:22:03.209Z,14.95
2019-04-25T06:27:44.748Z,15.03
2019-04-25T06:33:35.038Z,15.67
2019-04-25T06:36:01.398Z,16.08
2019-04-25T06:38:41.997Z,15.57
2019-04-25T06:41:07.972Z,16.11
2019-04-25T06:50:24.870Z,16.93
2019-04-25T06:56:15.882Z,17.75
2019-04-25T06:58:55.165Z,17.94
2019-04-25T07:01:34.682Z,17.80
2019-04-25T07:04:14.269Z,17.91
2019-04-25T07:06:40.240Z,18.18
2019-04-25T07:09:27.243Z,18.42
2019-04-25T07:14:59.264Z,18.85
2019-04-25T07:17:45.785Z,19.09
2019-04-25T07:20:27.034Z,19.12
2019-04-25T07:22:53.716Z,18.88
2019-04-25T07:29:13.404Z,18.33
2019-04-25T07:37:49.729Z,18.14
2019-04-25T07:40:57.416Z,18.77
2019-04-25T07:43:43.408Z,18.94
2019-04-25T07:46:23.585Z,19.51
2019-04-25T07:52:28.815Z,20.05
2019-04-25T07:55:27.898Z,20.73
2019-04-25T07:57:54.156Z,19.55
2019-04-25T08:03:23.739Z,20.64
2019-04-25T08:06:05.168Z,20.57
2019-04-25T08:08:44.383Z,21.07
2019-04-25T08:11:23.724Z,20.45
2019-04-25T08:14:05.262Z,20.59
2019-04-25T08:16:46.325Z,20.93
2019-04-25T08:19:54.351Z,21.50
2019-04-25T08:22:52.807Z,21.70
2019-04-25T08:25:23.453Z,21.60
2019-04-25T08:27:49.572Z,20.06
2019-04-25T08:33:39.551Z,22.28
2019-04-25T08:36:19.182Z,22.69
2019-04-25T08:38:45.203Z,22.25
2019-04-25T08:41:31.100Z,21.65
2019-04-25T08:44:10.153Z,22.77
2019-04-25T08:49:33.262Z,23.10
2019-04-25T08:52:18.109Z,23.17
2019-04-25T08:58:03.706Z,24.14
2019-04-25T09:01:09.623Z,23.96
2019-04-25T09:06:58.643Z,23.38
2019-04-25T09:16:23.898Z,23.59
2019-04-25T09:19:04.661Z,22.55
2019-04-25T09:21:48.966Z,23.59
2019-04-25T09:27:31.239Z,24.51
2019-04-25T09:30:17.131Z,22.72
2019-04-25T09:33:16.827Z,23.12
2019-04-25T09:35:56.214Z,23.53
2019-04-25T09:38:36.075Z,24.62
2019-04-25T09:44:45.229Z,24.92
2019-04-25T09:47:31.288Z,25.15
2019-04-25T09:50:31.102Z,25.61
2019-04-25T09:53:21.055Z,25.95
2019-04-25T09:55:59.317Z,25.21
2019-04-25T09:58:48.311Z,25.74
2019-04-25T10:01:41.597Z,26.46
2019-04-25T10:07:32.673Z,26.38
2019-04-25T10:13:25.172Z,25.36
2019-04-25T10:16:11.196Z,26.07
2019-04-25T10:22:29.116Z,26.32
2019-04-25T10:28:08.406Z,27.06
2019-04-25T10:34:14.899Z,25.80
2019-04-25T10:36:53.791Z,25.20
2019-04-25T10:43:03.913Z,25.53
2019-04-25T10:45:44.750Z,25.46
2019-04-25T10:48:24.589Z,25.71
2019-04-25T10:51:04.134Z,24.48
2019-04-25T10:53:45.674Z,24.68
2019-04-25T10:56:26.845Z,25.61
2019-04-25T10:59:05.821Z,25.56
2019-04-25T11:01:46.124Z,25.84
2019-04-25T11:07:13.672Z,24.90
2019-04-25T11:10:06.696Z,25.05
2019-04-25T11:12:45.372Z,25.33
2019-04-25T11:15:29.831Z,24.80
2019-04-25T11:18:08.907Z,24.55
2019-04-25T11:23:41.276Z,25.10
2019-04-25T11:26:31.363Z,25.04
2019-04-25T11:29:40.396Z,25.08
2019-04-25T11:32:27.561Z,25.30
2019-04-25T11:35:07.668Z,25.18
2019-04-25T11:37:34.314Z,25.38
2019-04-25T11:40:49.982Z,25.38
2019-04-25T11:43:29.191Z,25.95
2019-04-25T11:46:08.303Z,26.46
2019-04-25T11:49:07.381Z,25.53
2019-04-25T11:57:59.664Z,27.04
2019-04-25T12:00:46.273Z,27.50
2019-04-25T12:06:35.326Z,27.22
2019-04-25T12:09:01.364Z,27.01
2019-04-25T12:11:27.453Z,27.25
2019-04-25T12:14:06.494Z,27.24
2019-04-25T12:16:32.513Z,26.51
2019-04-25T12:19:18.393Z,26.56
2019-04-25T12:21:58.271Z,26.83
2019-04-25T12:24:24.420Z,26.35
2019-04-25T12:27:12.550Z,27.10
2019-04-25T12:29:38.891Z,27.04
2019-04-25T12:32:14.172Z,27.89
2019-04-25T12:34:47.443Z,27.45
2019-04-25T12:37:40.933Z,27.13
2019-04-25T12:40:20.097Z,27.02
2019-04-25T12:42:46.417Z,26.72
2019-04-25T12:46:00.181Z,27.36
2019-04-25T12:48:39.666Z,26.70
2019-04-25T12:54:39.973Z,26.36
2019-04-25T13:03:06.740Z,27.04
2019-04-25T13:05:31.935Z,27.11
2019-04-25T13:07:59.759Z,27.23
2019-04-25T13:13:46.827Z,27.02
2019-04-25T13:16:34.154Z,27.00
2019-04-25T13:19:16.461Z,26.87
2019-04-25T13:21:41.116Z,26.67
2019-04-25T13:24:20.067Z,26.76
2019-04-25T13:33:31.062Z,27.12
2019-04-25T13:39:26.081Z,27.17
2019-04-25T13:41:52.078Z,27.15
2019-04-25T13:44:18.047Z,26.86
2019-04-25T13:47:04.742Z,27.16
2019-04-25T13:49:43.933Z,27.38
2019-04-25T13:55:17.394Z,26.82
2019-04-25T13:57:43.620Z,27.17
2019-04-25T14:00:31.560Z,27.39
2019-04-25T14:03:41.994Z,27.71
2019-04-25T14:09:29.196Z,27.37
2019-04-25T14:12:08.657Z,26.55
2019-04-25T14:14:48.505Z,26.83
2019-04-25T14:17:35.648Z,26.90
2019-04-25T14:20:29.948Z,27.05
2019-04-25T14:32:37.316Z,27.02
2019-04-25T14:38:43.460Z,26.82
2019-04-25T14:44:23.937Z,26.51
2019-04-25T14:47:09.960Z,26.57
2019-04-25T14:49:49.532Z,26.16
2019-04-25T14:58:47.321Z,25.93
2019-04-25T15:01:27.993Z,25.42
2019-04-25T15:04:07.338Z,25.84
2019-04-25T15:10:17.388Z,26.04
2019-04-25T15:16:16.014Z,25.94
2019-04-25T15:19:14.818Z,25.39
2019-04-25T15:21:54.073Z,25.13
2019-04-25T15:24:33.198Z,25.28
2019-04-25T15:27:12.274Z,25.06
2019-04-25T15:29:38.342Z,24.93
2019-04-25T15:45:03.444Z,24.16
2019-04-25T15:47:45.432Z,23.88
2019-04-25T15:50:24.453Z,24.03
2019-04-25T15:53:04.320Z,24.08
2019-04-25T15:56:03.204Z,24.36
2019-04-25T15:58:29.781Z,24.00
2019-04-25T16:07:58.997Z,23.87
2019-04-25T16:10:17.718Z,23.83
2019-04-25T16:12:43.748Z,23.95
2019-04-25T16:15:09.732Z,23.92
2019-04-25T16:17:49.660Z,24.08
2019-04-25T16:20:15.649Z,23.77
2019-04-25T16:22:41.677Z,23.77
2019-04-25T16:25:41.271Z,23.72
2019-04-25T16:28:21.004Z,23.50
2019-04-25T16:30:47.040Z,23.47
2019-04-25T16:33:13.118Z,23.47
2019-04-25T16:35:52.924Z,23.37
2019-04-25T16:41:12.485Z,23.53
2019-04-25T16:47:17.524Z,23.41
2019-04-25T16:49:56.993Z,23.39
2019-04-25T16:56:15.206Z,23.20
2019-04-25T16:58:54.637Z,23.14
2019-04-25T17:01:34.628Z,23.29
2019-04-25T17:04:00.893Z,23.23
2019-04-25T17:06:46.804Z,23.35
2019-04-25T17:09:26.489Z,23.31
2019-04-25T17:12:07.187Z,23.21
2019-04-25T17:14:48.137Z,22.97
2019-04-25T17:20:55.603Z,22.92
2019-04-25T17:26:16.805Z,22.80
2019-04-25T17:28:58.581Z,22.78
2019-04-25T17:40:49.694Z,22.49
2019-04-25T17:43:41.809Z,22.39
2019-04-25T17:46:41.849Z,22.31
2019-04-25T17:49:21.336Z,22.24
2019-04-25T17:52:00.704Z,22.19
2019-04-25T17:54:41.021Z,21.94
2019-04-25T17:57:40.510Z,21.82
2019-04-25T18:03:31.220Z,21.55
2019-04-25T18:05:57.333Z,21.45
2019-04-25T18:08:44.166Z,21.35
2019-04-25T18:11:50.828Z,21.28
2019-04-25T18:14:30.148Z,21.11
2019-04-25T18:17:09.241Z,21.03
2019-04-25T18:31:53.293Z,20.49
2019-04-25T18:44:56.948Z,19.68
2019-04-25T18:47:23.024Z,19.69
2019-04-25T18:50:38.580Z,19.62
2019-04-25T18:56:32.429Z,19.59
2019-04-25T18:59:16.376Z,19.75
2019-04-25T19:02:15.628Z,19.29
2019-04-25T19:05:02.485Z,19.43
2019-04-25T19:13:56.877Z,18.88
2019-04-25T19:16:22.865Z,18.62
2019-04-25T19:22:13.627Z,19.02
2019-04-25T19:24:53.254Z,19.00
2019-04-25T19:27:52.158Z,18.98
2019-04-25T19:33:48.975Z,18.65
2019-04-25T19:36:31.990Z,18.23
2019-04-25T19:39:13.350Z,18.14
2019-04-25T19:44:33.045Z,18.50
2019-04-25T19:49:52.755Z,18.21
2019-04-25T19:55:43.473Z,18.10
2019-04-25T19:58:37.255Z,18.14
2019-04-25T20:01:16.925Z,18.10
2019-04-25T20:04:15.905Z,18.02
2019-04-25T20:13:12.759Z,17.80
2019-04-25T20:15:59.285Z,17.80
2019-04-25T20:18:38.801Z,17.65
2019-04-25T20:21:04.990Z,17.72
2019-04-25T20:23:52.094Z,17.84
2019-04-25T20:26:39.071Z,17.64
2019-04-25T20:29:19.369Z,17.28
2019-04-25T20:35:22.618Z,17.15
2019-04-25T20:38:02.617Z,17.24
2019-04-25T20:40:28.698Z,17.35
2019-04-25T20:42:54.686Z,17.43
2019-04-25T20:45:35.227Z,17.47
2019-04-25T20:51:37.677Z,16.78
2019-04-25T20:54:45.359Z,16.90
2019-04-25T20:57:49.821Z,16.81
2019-04-25T21:00:29.101Z,16.87
2019-04-25T21:03:08.102Z,16.87
2019-04-25T21:12:09.562Z,16.51
2019-04-25T21:18:03.595Z,16.65
2019-04-25T21:20:42.850Z,16.60
2019-04-25T21:23:21.932Z,16.41
2019-04-25T21:26:01.248Z,16.31
2019-04-25T21:28:27.388Z,16.31
2019-04-25T21:34:42.419Z,16.26
2019-04-25T21:37:22.147Z,16.27
2019-04-25T21:40:08.444Z,16.10
2019-04-25T21:42:56.609Z,16.17
2019-04-25T21:45:36.134Z,16.19
2019-04-25T21:48:16.185Z,16.08
2019-04-25T21:51:15.927Z,15.81
2019-04-25T21:53:55.277Z,15.62
2019-04-25T21:56:55.372Z,15.67
2019-04-25T21:59:21.824Z,15.72
2019-04-25T22:02:08.080Z,15.80
2019-04-25T22:08:04.795Z,15.44
2019-04-25T22:10:44.869Z,15.40
2019-04-25T22:13:43.741Z,15.69
2019-04-25T22:16:25.106Z,15.42
2019-04-25T22:19:06.148Z,15.43
2019-04-25T22:21:38.341Z,15.33
2019-04-25T22:24:51.582Z,15.59
2019-04-25T22:31:23.779Z,15.48
2019-04-25T22:37:10.865Z,15.40
2019-04-25T22:43:14.168Z,15.13
2019-04-25T22:45:40.471Z,15.00
2019-04-25T22:48:46.406Z,14.96
2019-04-25T22:51:45.625Z,14.81
2019-04-25T22:54:45.707Z,14.66
2019-04-25T22:57:53.992Z,14.75
2019-04-25T23:00:39.962Z,14.70
2019-04-25T23:06:10.138Z,14.64
2019-04-25T23:08:36.156Z,14.60
2019-04-25T23:11:22.105Z,14.60
2019-04-25T23:13:48.463Z,14.54
2019-04-25T23:16:26.090Z,14.48
2019-04-25T23:18:52.141Z,14.33
2019-04-25T23:21:38.081Z,14.36
2019-04-25T23:24:19.524Z,14.33
2019-04-25T23:27:06.291Z,14.36
2019-04-25T23:29:32.458Z,14.37
2019-04-25T23:31:58.480Z,14.35
2019-04-25T23:34:24.764Z,14.56
2019-04-25T23:37:04.709Z,14.51
2019-04-25T23:42:40.663Z,14.57
2019-04-25T23:50:56.776Z,14.53
2019-04-25T23:53:36.348Z,14.54
2019-04-25T23:56:15.497Z,14.60
2019-04-25T23:58:56.329Z,14.54
